Terminal Aerodrome Forecast
Issued by NWS

Home | Current Version | Previous Version | Text Only | Print | Product List | Glossary On
Versions: 1 2 3 4 5 6 7 8 9 10 11 12 13 14 15 16 17
000
FTUS43 KSGF 120500
TAFJLN
TAF
KJLN 120520Z 1206/1306 04007KT P6SM OVC015
     FM121000 03005KT P6SM OVC009
      TEMPO 1210/1214 OVC012
     FM121400 03010KT P6SM BKN015
     FM122100 01012G21KT P6SM OVC025
     FM130300 01011G19KT P6SM OVC015=

USA.gov is the U.S. government's official web portal to all federal, state and local government web resources and services.